Colora, MD

2:32 PM EDT on September 18, 2014 (GMT -0400)
New Castle County | Change Station
CLOSE
Current Station
Airport
Location: Wilmington,
Elevation: 79 ft
Nearby Weather Stations

Elev 79 ft 39.67 °N, 75.61 °W | Updated 41 minutes ago

Mostly Cloudy
Mostly Cloudy
69 °F
Feels Like 69 °F
N
10
Wind Variable Wind from WNW

Today
High -- | Low -- °F
--% Chance of Precip.
Yesterday
High -- | Low -- °F
Precip. -- in
6:48 AM 7:07 PM
Waning Crescent, 25% visible
Pressure 30.02 in
Visibility 10.0 miles
Clouds Overcast 7000 ft
Dew Point 57 °F
Humidity 65%
Rainfall 0.00 in
Snow Depth Not available.
UV 2 out of 12
Pollen 3.80 out of 12
Air Quality Not available.
Flu Activity Not available.
METAR KILG 181751Z 29009KT 10SM OVC070 21/14 A3002 RMK AO2 SLP166 T02060139 10211 20133 56004

More Conditions Fewer Conditions

Pressure 30.02 in
Visibility 10.0 miles
Clouds Overcast 7000 ft
Dew Point 57 °F
Humidity 65%
Rainfall 0.00 in
Snow Depth Not available.
UV 2 out of 12
Pollen 3.80 out of 12
Air Quality Not available.
Flu Activity Not available.
METAR KILG 181751Z 29009KT 10SM OVC070 21/14 A3002 RMK AO2 SLP166 T02060139 10211 20133 56004

More Conditions Fewer Conditions

Nowcast | as of 1:59 PM EDT on September 18, 2014

A couple of isolated showers or light sprinkles may affect the area through 4 PM. Most places will not receive rain, and those that do will only see a trace or a couple of hundredths of an inch.

×

10-Day Weather Forecast

Almanac

Astronomy

Sep. 18, 2014 Rise Set
Actual Time 6:48 AM EDT 7:07 PM EDT
Civil Twilight 6:21 AM EDT 7:34 PM EDT
Nautical Twilight 5:49 AM EDT 8:06 PM EDT
Astronomical Twilight 5:17 AM EDT 8:38 PM EDT
Moon 1:38 AM EDT 3:57 PM EDT
Length of Visible Light 13h 13m
Length of Day
12h 19m
Tomorrow will be 2m 35s shorter.
Waning Crescent, 25% of the Moon is Illuminated
Today
Waning Crescent
Sep 24
New
Oct 1
First Quarter
Oct 8
Full
Oct 15
Last Quarter

Today's Extremes

State Highs State Lows

Community

WunderPhotos

Upload Photos

1,754,417 photos uploaded!

Nearby

Snow Depth

Station Depth Elevation
No new snow has been reported.

Earthquake Activity

City Distance Mag. Time & Date
No recent earthquake activity has been reported nearby.
Minimum magnitude displayed is 2.5.

Coastal Water Temperatures

Place Temperature
Tolchester Beach, MD 73.0 °F
Chesapeake City, MD 73.9 °F
Baltimore, MD 77.0 °F

Nearby Weather Stations